createdAt,value
2018-07-12T12:44:28.173Z,30.42
2018-07-12T12:46:55.924Z,30.42
2018-07-12T12:49:23.653Z,30.57
2018-07-12T12:51:51.417Z,30.12
2018-07-12T12:54:19.149Z,30.27
2018-07-12T12:56:46.900Z,30.09
2018-07-12T12:59:14.664Z,30.32
2018-07-12T13:01:42.419Z,30.24
2018-07-12T13:04:10.249Z,30.11
2018-07-12T13:06:37.961Z,30.15
2018-07-12T13:09:06.471Z,29.99
2018-07-12T13:11:34.348Z,30.06
2018-07-12T13:14:02.104Z,30.28
2018-07-12T13:16:29.860Z,30.28
2018-07-12T13:18:57.614Z,30.28
2018-07-12T13:21:25.370Z,30.05
2018-07-12T13:23:53.482Z,29.96
2018-07-12T13:26:21.205Z,29.93
2018-07-12T13:28:48.917Z,29.89
2018-07-12T13:31:16.784Z,29.78
2018-07-12T13:33:44.500Z,29.64
2018-07-12T13:36:12.295Z,29.41
2018-07-12T13:38:40.195Z,29.23
2018-07-12T13:41:07.919Z,29.51
2018-07-12T13:43:35.987Z,29.50
2018-07-12T13:46:03.830Z,29.15
2018-07-12T13:48:31.641Z,29.01
2018-07-12T13:50:59.412Z,29.12
2018-07-12T13:53:27.162Z,29.04
2018-07-12T13:55:54.878Z,28.95
2018-07-12T13:58:23.212Z,28.70
2018-07-12T14:00:50.922Z,28.64
2018-07-12T14:03:18.627Z,28.67
2018-07-12T14:05:47.035Z,28.35
2018-07-12T14:08:14.840Z,28.35
2018-07-12T14:10:42.570Z,28.64
2018-07-12T14:13:10.309Z,28.51
2018-07-12T14:15:38.166Z,28.60
2018-07-12T14:18:06.001Z,28.58
2018-07-12T14:20:33.842Z,28.51
2018-07-12T14:23:01.555Z,28.47
2018-07-12T14:25:29.333Z,28.28
2018-07-12T14:27:57.028Z,28.19
2018-07-12T14:30:24.776Z,28.04
2018-07-12T14:32:52.521Z,27.90
2018-07-12T14:35:20.377Z,27.78
2018-07-12T14:37:48.200Z,27.74
2018-07-12T14:40:16.028Z,27.81
2018-07-12T14:42:43.776Z,27.72
2018-07-12T14:45:11.550Z,27.76
2018-07-12T14:47:39.355Z,27.93
2018-07-12T14:50:07.139Z,27.72
2018-07-12T14:52:34.961Z,27.52
2018-07-12T14:55:02.715Z,27.45
2018-07-12T14:57:30.749Z,27.22
2018-07-12T14:59:59.469Z,27.19
2018-07-12T15:02:27.357Z,26.83
2018-07-12T15:04:55.088Z,26.72
2018-07-12T15:07:22.894Z,26.53
2018-07-12T15:09:50.772Z,26.45
2018-07-12T15:12:18.574Z,26.09
2018-07-12T15:14:46.367Z,25.89
2018-07-12T15:17:14.176Z,25.59
2018-07-12T15:19:41.961Z,25.43
2018-07-12T15:22:09.642Z,25.07
2018-07-12T15:24:37.466Z,24.93
2018-07-12T15:27:05.256Z,24.74
2018-07-12T15:29:33.108Z,24.62
2018-07-12T15:32:00.867Z,24.56
2018-07-12T15:34:29.429Z,24.48
2018-07-12T15:36:57.120Z,24.39
2018-07-12T15:39:24.909Z,24.31
2018-07-12T15:41:52.638Z,24.10
2018-07-12T15:44:20.422Z,23.93
2018-07-12T15:46:48.114Z,23.73
2018-07-12T15:49:15.865Z,23.62
2018-07-12T15:51:43.722Z,23.59
2018-07-12T15:54:11.484Z,23.42
2018-07-12T15:56:39.228Z,23.32
2018-07-12T15:59:08.229Z,23.24
2018-07-12T16:01:36.166Z,23.15
2018-07-12T16:04:03.903Z,23.11
2018-07-12T16:06:32.283Z,23.04
2018-07-12T16:09:00.123Z,22.99
2018-07-12T16:11:27.892Z,22.93
2018-07-12T16:13:55.597Z,22.79
2018-07-12T16:16:23.446Z,22.70
2018-07-12T16:18:51.333Z,22.64
2018-07-12T16:21:19.118Z,22.63
2018-07-12T16:23:46.884Z,22.61
2018-07-12T16:26:14.647Z,22.61
2018-07-12T16:28:42.494Z,22.60
2018-07-12T16:31:10.405Z,22.55
2018-07-12T16:33:38.081Z,22.53
2018-07-12T16:36:05.850Z,22.43
2018-07-12T16:38:33.546Z,22.39
2018-07-12T16:41:01.326Z,22.33
2018-07-12T16:43:29.049Z,22.33
2018-07-12T16:45:56.772Z,22.30
2018-07-12T16:48:24.539Z,22.24
2018-07-12T16:50:52.349Z,22.25
2018-07-12T16:53:20.068Z,22.22
2018-07-12T16:55:47.890Z,22.21
2018-07-12T16:58:16.109Z,22.20
2018-07-12T17:00:44.824Z,22.17
2018-07-12T17:03:12.621Z,22.11
2018-07-12T17:05:40.340Z,22.08
2018-07-12T17:08:08.052Z,22.05
2018-07-12T17:10:35.827Z,22.04
2018-07-12T17:13:03.678Z,22.07
2018-07-12T17:15:31.476Z,22.08
2018-07-12T17:17:59.296Z,22.07
2018-07-12T17:20:27.013Z,22.06
2018-07-12T17:22:54.820Z,22.05
2018-07-12T17:25:22.671Z,22.07
2018-07-12T17:27:50.481Z,22.05
2018-07-12T17:30:18.221Z,22.04
2018-07-12T17:32:46.254Z,22.04
2018-07-12T17:35:14.053Z,22.04
2018-07-12T17:37:41.844Z,21.99
2018-07-12T17:40:09.638Z,21.96
2018-07-12T17:42:37.427Z,21.91
2018-07-12T17:45:05.211Z,21.85
2018-07-12T17:47:33.019Z,21.77
2018-07-12T17:50:00.786Z,21.72
2018-07-12T17:52:28.597Z,21.69
2018-07-12T17:54:56.351Z,21.59
2018-07-12T17:57:24.352Z,21.55
2018-07-12T17:59:52.140Z,21.45
2018-07-12T18:02:19.963Z,21.37
2018-07-12T18:04:48.090Z,21.30
2018-07-12T18:07:15.878Z,21.24
2018-07-12T18:09:43.633Z,21.18
2018-07-12T18:12:11.461Z,21.07
2018-07-12T18:14:39.203Z,21.03
2018-07-12T18:17:06.949Z,20.94
2018-07-12T18:19:35.357Z,20.87
2018-07-12T18:22:03.142Z,20.83
2018-07-12T18:24:30.943Z,20.81
2018-07-12T18:26:58.698Z,20.82
2018-07-12T18:29:26.636Z,20.82
2018-07-12T18:31:54.582Z,20.78
2018-07-12T18:34:22.369Z,20.75
2018-07-12T18:36:50.180Z,20.72
2018-07-12T18:39:18.851Z,20.65
2018-07-12T18:41:46.651Z,20.58
2018-07-12T18:44:14.460Z,20.54
2018-07-12T18:46:42.316Z,20.49
2018-07-12T18:49:10.100Z,20.42
2018-07-12T18:51:37.935Z,20.37
2018-07-12T18:54:05.734Z,20.31
2018-07-12T18:56:33.481Z,20.25
2018-07-12T18:59:01.236Z,20.19
2018-07-12T19:01:29.038Z,20.11
2018-07-12T19:03:56.830Z,20.02
2018-07-12T19:06:24.588Z,19.94
2018-07-12T19:08:52.384Z,19.88
2018-07-12T19:11:20.190Z,19.82
2018-07-12T19:13:48.291Z,19.76
2018-07-12T19:16:16.685Z,19.72
2018-07-12T19:18:44.415Z,19.66
2018-07-12T19:21:12.119Z,19.57
2018-07-12T19:23:39.873Z,19.49
2018-07-12T19:26:07.656Z,19.43
2018-07-12T19:28:35.382Z,19.37
2018-07-12T19:31:03.177Z,19.27
2018-07-12T19:33:31.014Z,19.20
2018-07-12T19:35:58.777Z,19.10
2018-07-12T19:38:26.667Z,19.00
2018-07-12T19:40:54.692Z,18.92
2018-07-12T19:43:22.395Z,18.81
2018-07-12T19:45:50.178Z,18.71
2018-07-12T19:48:17.894Z,18.59
2018-07-12T19:50:45.647Z,18.54
2018-07-12T19:53:13.401Z,18.44
2018-07-12T19:55:41.161Z,18.33
2018-07-12T19:58:08.908Z,18.22
2018-07-12T20:00:36.682Z,18.13
2018-07-12T20:03:04.890Z,18.05
2018-07-12T20:05:32.769Z,17.97
2018-07-12T20:08:00.595Z,17.86
2018-07-12T20:10:28.559Z,17.74
2018-07-12T20:12:56.356Z,17.62
2018-07-12T20:15:24.416Z,17.52
2018-07-12T20:17:52.283Z,17.43
2018-07-12T20:20:20.123Z,17.32
2018-07-12T20:22:47.937Z,17.09
2018-07-12T20:26:15.919Z,16.88
2018-07-12T20:28:43.733Z,16.77
2018-07-12T20:31:11.547Z,16.74
2018-07-12T20:33:39.360Z,16.69
2018-07-12T20:36:06.996Z,16.64
2018-07-12T20:38:34.627Z,16.61
2018-07-12T20:41:02.485Z,16.50
2018-07-12T20:43:30.368Z,16.41
2018-07-12T20:45:58.057Z,16.32
2018-07-12T20:48:25.931Z,16.32
2018-07-12T20:50:54.253Z,16.22
2018-07-12T20:53:21.944Z,16.16
2018-07-12T20:55:49.696Z,16.12
2018-07-12T20:58:17.361Z,16.08
2018-07-12T21:00:45.073Z,16.01
2018-07-12T21:03:12.723Z,15.93
2018-07-12T21:05:40.416Z,15.85
2018-07-12T21:08:08.127Z,15.81
2018-07-12T21:10:35.811Z,15.74
2018-07-12T21:13:03.623Z,15.65
2018-07-12T21:15:31.330Z,15.55
2018-07-12T21:18:00.050Z,15.51
2018-07-12T21:20:27.707Z,15.46
2018-07-12T21:22:55.383Z,15.39
2018-07-12T21:25:23.079Z,15.36
2018-07-12T21:27:50.926Z,15.31
2018-07-12T21:30:18.586Z,15.27
2018-07-12T21:32:46.271Z,15.21
2018-07-12T21:35:13.988Z,15.18
2018-07-12T21:37:41.792Z,15.14
2018-07-12T21:40:09.498Z,15.11
2018-07-12T21:42:37.252Z,15.06
2018-07-12T21:45:04.995Z,15.03
2018-07-12T21:47:32.739Z,14.97
2018-07-12T21:50:00.414Z,14.86
2018-07-12T21:52:28.086Z,14.71
2018-07-12T21:54:55.753Z,14.61
2018-07-12T21:57:23.499Z,14.58
2018-07-12T21:59:51.239Z,14.51
2018-07-12T22:02:19.005Z,14.39
2018-07-12T22:04:46.711Z,14.30
2018-07-12T22:08:23.973Z,14.21
2018-07-12T22:10:53.819Z,14.11
2018-07-12T22:13:22.310Z,14.02
2018-07-12T22:15:50.052Z,13.88
2018-07-12T22:18:17.807Z,13.81
2018-07-12T22:20:45.496Z,13.80
2018-07-12T22:23:13.184Z,13.77
2018-07-12T22:25:40.857Z,13.71
2018-07-12T22:28:08.509Z,13.62
2018-07-12T22:30:36.294Z,13.54
2018-07-12T22:33:04.616Z,13.49
2018-07-12T22:35:32.433Z,13.40
2018-07-12T22:38:01.187Z,13.32
2018-07-12T22:40:29.231Z,13.28
2018-07-12T22:42:57.224Z,13.22
2018-07-12T22:45:25.004Z,13.19
2018-07-12T22:47:52.650Z,13.12
2018-07-12T22:50:20.635Z,13.08
2018-07-12T22:52:48.356Z,13.06
2018-07-12T22:55:16.077Z,13.02
2018-07-12T22:57:43.733Z,12.98
2018-07-12T23:00:11.511Z,12.92
2018-07-12T23:02:39.473Z,12.89
2018-07-12T23:05:07.327Z,12.81
2018-07-12T23:07:35.024Z,12.75
2018-07-12T23:10:02.833Z,12.65
2018-07-12T23:12:31.053Z,12.59
2018-07-12T23:14:58.718Z,12.57
2018-07-12T23:17:26.422Z,12.54
2018-07-12T23:19:54.087Z,12.48
2018-07-12T23:22:22.136Z,12.42
2018-07-12T23:24:49.929Z,12.35
2018-07-12T23:27:17.740Z,12.27
2018-07-12T23:29:45.769Z,12.24
2018-07-12T23:32:13.504Z,12.15
2018-07-12T23:34:41.191Z,12.04
2018-07-12T23:37:08.937Z,11.93
2018-07-12T23:39:37.266Z,11.86
2018-07-12T23:42:04.949Z,11.82
2018-07-12T23:44:32.647Z,11.78
2018-07-12T23:47:00.352Z,11.77
2018-07-12T23:49:28.063Z,11.73
2018-07-12T23:51:55.792Z,11.65
2018-07-12T23:54:23.515Z,11.53
2018-07-12T23:56:51.266Z,11.44
2018-07-12T23:59:18.996Z,11.34
